createdAt,value
2022-08-21T00:01:43.035Z,18.40
2022-08-21T00:04:11.216Z,18.40
2022-08-21T00:06:41.674Z,18.30
2022-08-21T00:09:09.021Z,18.30
2022-08-21T00:11:37.738Z,18.20
2022-08-21T00:14:06.983Z,18.30
2022-08-21T00:16:34.032Z,18.20
2022-08-21T00:19:00.714Z,18.20
2022-08-21T00:21:27.840Z,18.20
2022-08-21T00:23:54.514Z,18.20
2022-08-21T00:26:21.426Z,18.20
2022-08-21T00:28:49.782Z,18.10
2022-08-21T00:31:17.536Z,18.20
2022-08-21T00:33:44.271Z,18.20
2022-08-21T00:36:11.606Z,18.10
2022-08-21T00:38:38.385Z,18.10
2022-08-21T00:41:36.380Z,18.20
2022-08-21T00:43:55.932Z,18.20
2022-08-21T00:46:23.346Z,18.20
2022-08-21T00:48:56.207Z,18.20
2022-08-21T00:51:38.290Z,18.30
2022-08-21T00:54:06.771Z,18.30
2022-08-21T00:56:43.095Z,18.30
2022-08-21T00:59:10.996Z,18.30
2022-08-21T01:01:38.169Z,18.30
2022-08-21T01:04:05.112Z,18.40
2022-08-21T01:06:31.876Z,18.40
2022-08-21T01:08:58.912Z,18.40
2022-08-21T01:11:26.024Z,18.30
2022-08-21T01:13:53.275Z,18.30
2022-08-21T01:16:22.360Z,18.30
2022-08-21T01:18:50.073Z,18.30
2022-08-21T01:21:21.243Z,18.30
2022-08-21T01:23:50.702Z,18.40
2022-08-21T01:26:22.484Z,18.30
2022-08-21T01:29:07.038Z,18.30
2022-08-21T01:31:33.993Z,18.30
2022-08-21T01:34:00.714Z,18.20
2022-08-21T01:36:27.956Z,18.10
2022-08-21T01:38:54.758Z,18.10
2022-08-21T01:41:21.557Z,18.00
2022-08-21T01:43:48.490Z,18.00
2022-08-21T01:46:15.407Z,18.00
2022-08-21T01:48:42.669Z,17.90
2022-08-21T01:51:09.729Z,17.90
2022-08-21T01:53:37.616Z,17.90
2022-08-21T01:56:12.158Z,17.90
2022-08-21T01:58:41.325Z,17.90
2022-08-21T02:01:08.126Z,17.90
2022-08-21T02:03:35.815Z,17.90
2022-08-21T02:06:05.226Z,17.90
2022-08-21T02:08:31.951Z,17.80
2022-08-21T02:10:58.619Z,17.90
2022-08-21T02:13:25.428Z,17.90
2022-08-21T02:15:52.070Z,17.80
2022-08-21T02:18:19.279Z,17.80
2022-08-21T02:20:48.092Z,17.90
2022-08-21T02:23:15.298Z,17.80
2022-08-21T02:25:42.842Z,17.90
2022-08-21T02:28:12.652Z,17.70
2022-08-21T02:30:42.870Z,17.70
2022-08-21T02:33:12.584Z,17.60
2022-08-21T02:35:42.889Z,17.60
2022-08-21T02:38:13.350Z,17.50
2022-08-21T02:40:43.772Z,17.50
2022-08-21T02:43:16.133Z,17.50
2022-08-21T02:45:43.725Z,17.40
2022-08-21T02:48:15.059Z,17.30
2022-08-21T02:50:48.519Z,17.30
2022-08-21T02:53:17.456Z,17.20
2022-08-21T02:55:49.946Z,17.20
2022-08-21T02:58:21.826Z,17.10
2022-08-21T03:00:48.470Z,17.20
2022-08-21T03:03:15.417Z,17.30
2022-08-21T03:05:43.539Z,17.30
2022-08-21T03:08:12.515Z,17.30
2022-08-21T03:10:42.265Z,17.30
2022-08-21T03:13:09.785Z,17.30
2022-08-21T03:15:36.756Z,17.30
2022-08-21T03:18:05.977Z,17.20
2022-08-21T03:20:34.347Z,17.20
2022-08-21T03:23:02.431Z,17.10
2022-08-21T03:25:39.827Z,17.10
2022-08-21T03:28:12.976Z,17.00
2022-08-21T03:30:41.328Z,17.00
2022-08-21T03:33:07.983Z,16.90
2022-08-21T03:35:34.651Z,16.90
2022-08-21T03:38:01.272Z,16.90
2022-08-21T03:40:28.073Z,16.90
2022-08-21T03:42:54.952Z,16.80
2022-08-21T03:45:22.201Z,16.80
2022-08-21T03:48:09.997Z,16.80
2022-08-21T03:50:41.550Z,16.80
2022-08-21T03:53:16.891Z,16.70
2022-08-21T03:55:45.674Z,16.70
2022-08-21T03:58:16.338Z,16.80
2022-08-21T04:00:44.848Z,16.70
2022-08-21T04:03:11.504Z,16.70
2022-08-21T04:05:38.419Z,16.60
2022-08-21T04:08:06.796Z,16.60
2022-08-21T04:10:35.993Z,16.60
2022-08-21T04:13:04.352Z,16.60
2022-08-21T04:15:30.990Z,16.60
2022-08-21T04:17:57.867Z,16.60
2022-08-21T04:20:25.840Z,16.50
2022-08-21T04:22:53.051Z,16.40
2022-08-21T04:25:21.829Z,16.40
2022-08-21T04:27:48.512Z,16.40
2022-08-21T04:30:16.453Z,16.40
2022-08-21T04:32:45.761Z,16.40
2022-08-21T04:35:14.081Z,16.30
2022-08-21T04:37:42.115Z,16.30
2022-08-21T04:40:11.777Z,16.30
2022-08-21T04:42:56.539Z,16.20
2022-08-21T04:45:30.599Z,16.30
2022-08-21T04:47:59.726Z,16.20
2022-08-21T04:50:37.332Z,16.20
2022-08-21T04:53:07.612Z,16.20
2022-08-21T04:55:34.876Z,16.20
2022-08-21T04:58:01.793Z,16.20
2022-08-21T05:00:28.534Z,16.20
2022-08-21T05:02:57.706Z,16.20
2022-08-21T05:05:25.574Z,16.20
2022-08-21T05:07:54.072Z,16.20
2022-08-21T05:10:20.941Z,16.20
2022-08-21T05:12:47.639Z,16.20
2022-08-21T05:15:15.197Z,16.10
2022-08-21T05:17:42.719Z,16.10
2022-08-21T05:20:11.357Z,16.00
2022-08-21T05:22:38.542Z,16.00
2022-08-21T05:25:10.444Z,16.10
2022-08-21T05:27:39.090Z,16.10
2022-08-21T05:30:08.501Z,16.10
2022-08-21T05:32:36.056Z,16.20
2022-08-21T05:35:07.641Z,16.30
2022-08-21T05:37:34.924Z,16.30
2022-08-21T05:40:04.615Z,16.30
2022-08-21T05:42:54.248Z,16.40
2022-08-21T05:45:42.922Z,16.30
2022-08-21T05:48:14.659Z,16.30
2022-08-21T05:50:41.943Z,16.40
2022-08-21T05:53:10.328Z,16.50
2022-08-21T05:55:41.403Z,16.50
2022-08-21T05:58:12.153Z,16.60
2022-08-21T06:00:38.891Z,16.60
2022-08-21T06:03:05.516Z,16.60
2022-08-21T06:05:37.374Z,16.60
2022-08-21T06:08:05.075Z,16.70
2022-08-21T06:10:32.083Z,16.80
2022-08-21T06:12:59.040Z,16.80
2022-08-21T06:15:27.216Z,16.90
2022-08-21T06:17:54.762Z,16.90
2022-08-21T06:20:24.883Z,16.90
2022-08-21T06:22:51.579Z,16.90
2022-08-21T06:25:19.463Z,16.90
2022-08-21T06:27:46.882Z,17.00
2022-08-21T06:30:14.300Z,17.00
2022-08-21T06:32:40.931Z,17.00
2022-08-21T06:35:08.004Z,17.10
2022-08-21T06:37:34.803Z,17.20
2022-08-21T06:40:01.761Z,17.20
2022-08-21T06:42:29.103Z,17.30
2022-08-21T06:44:55.781Z,17.30
2022-08-21T06:47:22.836Z,17.40
2022-08-21T06:49:49.567Z,17.50
2022-08-21T06:52:16.901Z,17.60
2022-08-21T06:54:43.857Z,17.70
2022-08-21T06:57:10.538Z,17.70
2022-08-21T06:59:37.273Z,17.80
2022-08-21T07:02:04.485Z,17.90
2022-08-21T07:04:31.238Z,17.80
2022-08-21T07:06:57.914Z,18.00
2022-08-21T07:09:25.009Z,18.10
2022-08-21T07:11:54.641Z,18.10
2022-08-21T07:14:21.876Z,18.20
2022-08-21T07:16:49.470Z,18.20
2022-08-21T07:19:16.269Z,18.20
2022-08-21T07:21:43.028Z,18.30
2022-08-21T07:24:09.826Z,18.30
2022-08-21T07:26:37.455Z,18.40
2022-08-21T07:29:04.481Z,18.50
2022-08-21T07:31:31.385Z,18.50
2022-08-21T07:33:58.832Z,18.50
2022-08-21T07:36:25.843Z,18.60
2022-08-21T07:38:53.054Z,18.70
2022-08-21T07:41:26.236Z,18.70
2022-08-21T07:43:53.407Z,18.70
2022-08-21T07:46:20.672Z,18.80
2022-08-21T07:48:47.429Z,18.80
2022-08-21T07:51:15.989Z,18.90
2022-08-21T07:53:43.135Z,19.00
2022-08-21T07:56:12.112Z,19.00
2022-08-21T07:58:38.807Z,19.00
2022-08-21T08:01:07.091Z,19.10
2022-08-21T08:03:34.750Z,19.10
2022-08-21T08:06:01.636Z,19.30
2022-08-21T08:08:29.309Z,19.30
2022-08-21T08:10:58.642Z,19.30
2022-08-21T08:13:25.916Z,19.30
2022-08-21T08:15:52.978Z,19.30
2022-08-21T08:18:19.960Z,19.30
2022-08-21T08:20:46.587Z,19.40
2022-08-21T08:23:14.850Z,19.40
2022-08-21T08:25:41.862Z,19.50
2022-08-21T08:28:16.345Z,19.40
2022-08-21T08:30:47.112Z,19.50
2022-08-21T08:33:15.239Z,19.60
2022-08-21T08:35:48.572Z,19.70
2022-08-21T08:38:19.646Z,19.80
2022-08-21T08:41:00.989Z,19.90
2022-08-21T08:43:29.520Z,20.00
2022-08-21T08:45:58.882Z,20.00
2022-08-21T08:48:53.484Z,20.10
2022-08-21T08:51:32.081Z,20.10
2022-08-21T08:54:03.586Z,20.20
2022-08-21T08:56:35.031Z,20.30
2022-08-21T08:59:30.467Z,20.40
2022-08-21T09:01:57.427Z,20.50
2022-08-21T09:04:29.622Z,20.50
2022-08-21T09:07:05.743Z,20.40
2022-08-21T09:09:49.274Z,20.30
2022-08-21T09:12:42.403Z,20.30
2022-08-21T09:15:27.230Z,20.40
2022-08-21T09:18:14.864Z,20.50
2022-08-21T09:21:12.852Z,20.60
2022-08-21T09:23:53.751Z,20.90
2022-08-21T09:26:24.956Z,20.90
2022-08-21T09:28:59.570Z,21.00
2022-08-21T09:31:35.487Z,21.10
2022-08-21T09:34:09.228Z,21.20
2022-08-21T09:36:44.594Z,21.30
2022-08-21T09:39:13.521Z,21.30
2022-08-21T09:41:40.833Z,21.40
2022-08-21T09:44:09.542Z,21.50
2022-08-21T09:46:37.189Z,21.50
2022-08-21T09:49:05.981Z,21.50
2022-08-21T09:51:37.092Z,21.60
2022-08-21T09:54:07.008Z,21.60
2022-08-21T09:56:59.088Z,21.70
2022-08-21T09:59:36.446Z,21.70
2022-08-21T10:02:29.172Z,21.90
2022-08-21T10:05:07.734Z,22.00
2022-08-21T10:07:38.143Z,22.00
2022-08-21T10:10:33.438Z,22.10
2022-08-21T10:13:21.104Z,22.20
2022-08-21T10:16:07.510Z,22.20
2022-08-21T10:18:47.052Z,22.20
2022-08-21T10:21:29.307Z,22.30
2022-08-21T10:24:31.515Z,22.30
2022-08-21T10:27:17.595Z,22.30
2022-08-21T10:30:00.471Z,22.40
2022-08-21T10:32:48.307Z,22.30
2022-08-21T10:35:24.203Z,22.40
2022-08-21T10:38:23.513Z,22.40
2022-08-21T10:41:16.599Z,22.30
2022-08-21T10:43:46.035Z,22.30
2022-08-21T10:46:24.762Z,22.30
2022-08-21T10:49:14.724Z,22.40
2022-08-21T10:51:46.295Z,22.50
2022-08-21T10:54:33.874Z,22.60
2022-08-21T10:57:08.855Z,22.60
2022-08-21T10:59:43.393Z,22.70
2022-08-21T11:02:27.085Z,22.80
2022-08-21T11:05:02.350Z,22.80
2022-08-21T11:07:33.307Z,22.90
2022-08-21T11:10:15.592Z,23.00
2022-08-21T11:12:48.203Z,23.00
2022-08-21T11:15:51.102Z,23.10
2022-08-21T11:18:37.828Z,23.00
2022-08-21T11:21:26.847Z,23.00
2022-08-21T11:24:32.732Z,23.00
2022-08-21T11:27:05.898Z,22.90
2022-08-21T11:29:39.638Z,22.90
2022-08-21T11:32:46.021Z,22.80
2022-08-21T11:35:31.418Z,22.70
2022-08-21T11:37:58.120Z,22.70
2022-08-21T11:40:42.559Z,22.70
2022-08-21T11:43:43.781Z,22.70
2022-08-21T11:46:13.236Z,22.90
2022-08-21T11:48:48.883Z,22.90
2022-08-21T11:51:23.373Z,23.00
2022-08-21T11:54:01.339Z,22.90
2022-08-21T11:56:43.255Z,22.90
2022-08-21T11:59:17.614Z,23.10
2022-08-21T12:01:46.800Z,23.20
2022-08-21T12:04:26.195Z,23.30
2022-08-21T12:06:53.399Z,23.40
2022-08-21T12:09:26.245Z,23.50
2022-08-21T12:12:06.232Z,23.50
2022-08-21T12:14:49.328Z,23.70
2022-08-21T12:17:25.213Z,23.50
2022-08-21T12:20:00.139Z,23.40
2022-08-21T12:22:41.927Z,23.40
2022-08-21T12:25:21.561Z,23.30
2022-08-21T12:28:04.349Z,23.20
2022-08-21T12:30:36.008Z,23.10
2022-08-21T12:33:06.402Z,23.10
2022-08-21T12:35:43.856Z,23.20
2022-08-21T12:38:26.660Z,23.40
2022-08-21T12:41:11.173Z,23.40
2022-08-21T12:43:52.340Z,23.40
2022-08-21T12:46:26.343Z,23.40
2022-08-21T12:48:58.256Z,23.30
2022-08-21T12:51:34.456Z,23.30
2022-08-21T12:54:01.454Z,23.20
2022-08-21T12:56:34.176Z,23.20
2022-08-21T12:59:08.697Z,23.20
2022-08-21T13:01:44.860Z,23.20
2022-08-21T13:04:16.599Z,23.20
2022-08-21T13:06:52.255Z,23.20
2022-08-21T13:09:24.808Z,23.40
2022-08-21T13:11:52.471Z,23.50
2022-08-21T13:14:46.081Z,23.60
2022-08-21T13:17:25.563Z,23.70
2022-08-21T13:20:02.542Z,23.80
2022-08-21T13:22:33.409Z,24.00
2022-08-21T13:25:07.177Z,24.00
2022-08-21T13:27:34.917Z,24.00
2022-08-21T13:30:08.065Z,24.10
2022-08-21T13:32:39.725Z,24.00
2022-08-21T13:35:15.479Z,24.00
2022-08-21T13:37:44.275Z,24.10
2022-08-21T13:40:16.287Z,24.20
2022-08-21T13:42:45.337Z,24.20
2022-08-21T13:45:24.980Z,24.30
2022-08-21T13:47:53.836Z,24.40
2022-08-21T13:50:23.825Z,24.40
2022-08-21T13:53:45.533Z,24.40
2022-08-21T13:56:24.412Z,24.40
2022-08-21T13:58:51.290Z,24.50
2022-08-21T14:01:32.892Z,24.60
2022-08-21T14:04:08.207Z,24.60
2022-08-21T14:06:38.327Z,24.60
2022-08-21T14:09:20.826Z,24.60
2022-08-21T14:11:47.513Z,24.70
2022-08-21T14:14:27.914Z,24.60
2022-08-21T14:16:58.478Z,24.60
2022-08-21T14:19:38.292Z,24.60
2022-08-21T14:22:35.749Z,24.60
2022-08-21T14:25:05.594Z,24.60
2022-08-21T14:27:33.919Z,24.60
2022-08-21T14:30:12.223Z,24.70
2022-08-21T14:32:44.856Z,24.60
2022-08-21T14:35:13.170Z,24.70
2022-08-21T14:37:43.498Z,24.60
2022-08-21T14:40:11.501Z,24.60
2022-08-21T14:42:43.094Z,24.70
2022-08-21T14:45:18.200Z,24.70
2022-08-21T14:47:50.611Z,24.80
2022-08-21T14:50:17.363Z,24.80
2022-08-21T14:52:46.558Z,24.80
2022-08-21T14:55:17.385Z,24.80
2022-08-21T14:57:49.824Z,24.80
2022-08-21T15:00:20.400Z,24.90
2022-08-21T15:02:47.366Z,25.00
2022-08-21T15:05:26.821Z,25.00
2022-08-21T15:08:00.037Z,25.00
2022-08-21T15:10:26.803Z,24.90
2022-08-21T15:12:53.449Z,24.90
2022-08-21T15:15:20.234Z,25.00
2022-08-21T15:17:48.490Z,25.00
2022-08-21T15:20:15.936Z,24.90
2022-08-21T15:22:47.713Z,24.90
2022-08-21T15:25:14.903Z,24.90
2022-08-21T15:27:41.691Z,24.90
2022-08-21T15:30:08.978Z,25.00
2022-08-21T15:32:35.733Z,24.90
2022-08-21T15:35:03.290Z,25.00
2022-08-21T15:37:30.058Z,25.00
2022-08-21T15:39:56.870Z,25.00
2022-08-21T15:42:25.286Z,25.00
2022-08-21T15:44:53.457Z,25.10
2022-08-21T15:47:24.519Z,25.10
2022-08-21T15:49:51.489Z,25.10
2022-08-21T15:52:21.268Z,25.10
2022-08-21T15:54:48.523Z,25.10
2022-08-21T15:57:18.622Z,25.00
2022-08-21T15:59:50.462Z,25.00
2022-08-21T16:02:24.028Z,25.00
2022-08-21T16:04:50.825Z,25.00
2022-08-21T16:07:17.583Z,24.90
2022-08-21T16:09:44.456Z,24.90
2022-08-21T16:12:20.637Z,24.90
2022-08-21T16:14:47.667Z,24.90
2022-08-21T16:17:14.348Z,24.90
2022-08-21T16:19:41.228Z,24.90
2022-08-21T16:22:08.012Z,24.90
2022-08-21T16:24:35.127Z,25.00
2022-08-21T16:27:04.610Z,25.00
2022-08-21T16:29:36.899Z,24.90
2022-08-21T16:32:04.681Z,24.90
2022-08-21T16:34:31.608Z,24.90
2022-08-21T16:36:58.301Z,24.90
2022-08-21T16:39:25.093Z,24.90
2022-08-21T16:41:52.194Z,24.80
2022-08-21T16:44:23.057Z,24.80
2022-08-21T16:46:50.192Z,24.80
2022-08-21T16:49:17.269Z,24.80
2022-08-21T16:51:43.984Z,24.70
2022-08-21T16:54:12.004Z,24.60
2022-08-21T16:56:42.049Z,24.60
2022-08-21T16:59:12.668Z,24.50
2022-08-21T17:01:39.895Z,24.40
2022-08-21T17:04:06.646Z,24.40
2022-08-21T17:06:33.832Z,24.40
2022-08-21T17:09:03.698Z,24.40
2022-08-21T17:11:39.867Z,24.40
2022-08-21T17:14:15.637Z,24.40
2022-08-21T17:16:45.737Z,24.30
2022-08-21T17:19:13.453Z,24.30
2022-08-21T17:21:40.187Z,24.30
2022-08-21T17:24:07.338Z,24.30
2022-08-21T17:26:34.527Z,24.30
2022-08-21T17:29:01.442Z,24.30
2022-08-21T17:31:29.594Z,24.20
2022-08-21T17:33:56.506Z,24.20
2022-08-21T17:36:26.020Z,24.20
2022-08-21T17:38:53.147Z,24.20
2022-08-21T17:41:20.806Z,24.20
2022-08-21T17:43:47.715Z,24.20
2022-08-21T17:46:20.701Z,24.20
2022-08-21T17:48:47.656Z,24.00
2022-08-21T17:51:14.857Z,23.90
2022-08-21T17:53:42.003Z,23.80
2022-08-21T17:56:09.573Z,23.80
2022-08-21T17:58:36.964Z,23.80
2022-08-21T18:01:05.574Z,23.80
2022-08-21T18:03:37.166Z,23.80
2022-08-21T18:06:06.082Z,23.70
2022-08-21T18:08:33.327Z,23.70
2022-08-21T18:11:00.835Z,23.70
2022-08-21T18:13:31.199Z,23.60
2022-08-21T18:16:00.014Z,23.50
2022-08-21T18:18:28.732Z,23.50
2022-08-21T18:20:55.979Z,23.50
2022-08-21T18:23:24.268Z,23.40
2022-08-21T18:25:57.246Z,23.30
2022-08-21T18:28:24.751Z,23.20
2022-08-21T18:30:54.173Z,23.20
2022-08-21T18:33:22.237Z,23.10
2022-08-21T18:35:49.337Z,23.10
2022-08-21T18:38:19.560Z,23.10
2022-08-21T18:40:55.618Z,22.90
2022-08-21T18:43:23.601Z,22.90
2022-08-21T18:45:50.551Z,22.90
2022-08-21T18:48:17.960Z,22.80
2022-08-21T18:50:47.888Z,22.80
2022-08-21T18:53:24.205Z,22.80
2022-08-21T18:55:57.157Z,22.70
2022-08-21T18:58:25.436Z,22.60
2022-08-21T19:00:54.154Z,22.50
2022-08-21T19:03:24.000Z,22.30
2022-08-21T19:05:52.273Z,22.20
2022-08-21T19:08:21.475Z,22.00
2022-08-21T19:10:50.473Z,21.90
2022-08-21T19:13:20.783Z,21.80
2022-08-21T19:15:52.849Z,21.70
2022-08-21T19:18:27.974Z,21.70
2022-08-21T19:20:55.907Z,21.70
2022-08-21T19:23:29.313Z,21.60
2022-08-21T19:26:00.558Z,21.70
2022-08-21T19:28:31.839Z,21.70
2022-08-21T19:31:10.492Z,21.80
2022-08-21T19:33:41.563Z,21.80
2022-08-21T19:36:11.721Z,21.80
2022-08-21T19:38:38.944Z,21.80
2022-08-21T19:41:09.260Z,21.60
2022-08-21T19:43:43.009Z,21.50
2022-08-21T19:46:10.134Z,21.30
2022-08-21T19:48:37.974Z,21.20
2022-08-21T19:51:07.506Z,21.10
2022-08-21T19:53:35.040Z,21.10
2022-08-21T19:56:02.203Z,21.10
2022-08-21T19:58:36.057Z,21.10
2022-08-21T20:01:05.684Z,21.10
2022-08-21T20:03:39.172Z,21.10
2022-08-21T20:06:10.067Z,21.00
2022-08-21T20:08:37.161Z,20.80
2022-08-21T20:11:05.247Z,20.70
2022-08-21T20:13:33.951Z,20.60
2022-08-21T20:16:04.813Z,20.60
2022-08-21T20:18:33.521Z,20.70
2022-08-21T20:21:00.365Z,20.70
2022-08-21T20:23:30.231Z,20.70
2022-08-21T20:25:58.835Z,20.80
2022-08-21T20:28:29.593Z,20.80
2022-08-21T20:30:57.263Z,20.70
2022-08-21T20:33:24.487Z,20.50
2022-08-21T20:35:52.110Z,20.40
2022-08-21T20:38:20.400Z,20.20
2022-08-21T20:40:52.482Z,20.10
2022-08-21T20:43:21.231Z,20.20
2022-08-21T20:45:49.111Z,20.20
2022-08-21T20:48:28.341Z,20.20
2022-08-21T20:51:10.731Z,20.20
2022-08-21T20:54:15.132Z,20.20
2022-08-21T20:57:04.034Z,20.10
2022-08-21T20:59:33.533Z,20.10
2022-08-21T21:02:32.862Z,20.10
2022-08-21T21:05:22.294Z,20.00
2022-08-21T21:08:06.247Z,19.90
2022-08-21T21:10:37.116Z,19.80
2022-08-21T21:13:26.920Z,19.80
2022-08-21T21:15:58.312Z,19.70
2022-08-21T21:18:40.869Z,19.60
2022-08-21T21:21:24.623Z,19.50
2022-08-21T21:24:27.718Z,19.40
2022-08-21T21:27:11.523Z,19.30
2022-08-21T21:29:49.940Z,19.30
2022-08-21T21:32:18.994Z,19.30
2022-08-21T21:34:47.400Z,19.30
2022-08-21T21:37:41.957Z,19.30
2022-08-21T21:40:41.464Z,19.20
2022-08-21T21:43:23.155Z,19.20
2022-08-21T21:46:09.295Z,19.20
2022-08-21T21:49:11.471Z,19.20
2022-08-21T21:52:01.033Z,19.10
2022-08-21T21:55:05.272Z,19.10
2022-08-21T21:57:50.395Z,18.90
2022-08-21T22:00:26.415Z,18.90
2022-08-21T22:03:23.410Z,18.90
2022-08-21T22:05:50.531Z,18.90
2022-08-21T22:08:23.975Z,18.90
2022-08-21T22:11:24.349Z,18.80
2022-08-21T22:14:12.288Z,18.80
2022-08-21T22:16:40.649Z,18.80
2022-08-21T22:19:29.307Z,18.80
2022-08-21T22:22:00.576Z,18.80
2022-08-21T22:24:35.424Z,18.80
2022-08-21T22:27:13.362Z,18.80
2022-08-21T22:29:56.314Z,18.80
2022-08-21T22:32:42.828Z,18.80
2022-08-21T22:35:23.092Z,18.80
2022-08-21T22:37:59.757Z,18.80
2022-08-21T22:40:27.803Z,18.90
2022-08-21T22:43:07.394Z,18.90
2022-08-21T22:46:00.708Z,18.90
2022-08-21T22:48:31.341Z,18.80
2022-08-21T22:51:10.008Z,18.90
2022-08-21T22:53:41.027Z,18.90
2022-08-21T22:56:08.494Z,18.90
2022-08-21T22:58:58.097Z,18.80
2022-08-21T23:01:24.761Z,18.80
2022-08-21T23:03:54.364Z,18.70
2022-08-21T23:06:32.641Z,18.70
2022-08-21T23:09:01.355Z,18.60
2022-08-21T23:11:43.919Z,18.50
2022-08-21T23:17:14.412Z,18.50
2022-08-21T23:19:51.758Z,18.50
2022-08-21T23:23:00.423Z,18.40
2022-08-21T23:25:41.947Z,18.40
2022-08-21T23:28:38.660Z,18.40
2022-08-21T23:31:14.339Z,18.40
2022-08-21T23:33:48.442Z,18.40
2022-08-21T23:36:58.969Z,18.30
2022-08-21T23:39:36.774Z,18.30
2022-08-21T23:42:18.003Z,18.30
2022-08-21T23:45:08.482Z,18.10
2022-08-21T23:47:59.547Z,18.00
2022-08-21T23:50:44.304Z,18.00
2022-08-21T23:53:29.344Z,18.00
2022-08-21T23:56:06.184Z,17.90
2022-08-21T23:58:36.287Z,17.80
